Time;durP1;ratioP1;P1;durP2;ratioP2;P2;SDS_P1;SDS_P2;PMS_P1;PMS_P2;Temp;Humidity;BMP_temperature;BMP_pressure;BME280_temperature;BME280_humidity;BME280_pressure;Samples;Min_cycle;Max_cycle;Signal;HPM_P1;HPM_P2
2022/02/23 00:00:49;;;;;;;12.37;3.33;;;;;;;;;;4994001;28;20121;-60
2022/02/23 00:03:14;;;;;;;13.93;3.50;;;;;;;;;;4987202;28;20079;-59
2022/02/23 00:05:39;;;;;;;9.90;3.97;;;;;;;;;;4992425;28;20385;-61
2022/02/23 00:08:05;;;;;;;10.90;3.60;;;;;;;;;;4996066;28;20566;-58
2022/02/23 00:10:30;;;;;;;16.67;6.25;;;;;;;;;;4989605;28;20358;-61
2022/02/23 00:12:55;;;;;;;12.13;5.15;;;;;;;;;;4990893;28;20133;-59
2022/02/23 00:15:20;;;;;;;12.40;4.00;;;;;;;;;;4989392;28;20166;-59
2022/02/23 00:17:46;;;;;;;14.40;4.47;;;;;;;;;;4987647;28;20116;-60
2022/02/23 00:20:12;;;;;;;11.13;3.33;;;;;;;;;;4991883;28;20969;-61
2022/02/23 00:22:37;;;;;;;14.40;4.75;;;;;;;;;;4990419;28;20257;-60
2022/02/23 00:25:03;;;;;;;10.13;3.37;;;;;;;;;;4985669;28;20106;-60
2022/02/23 00:27:28;;;;;;;14.23;4.28;;;;;;;;;;5004682;28;20082;-58
2022/02/23 00:29:53;;;;;;;12.83;3.77;;;;;;;;;;5001646;28;20102;-59
2022/02/23 00:32:19;;;;;;;18.23;5.10;;;;;;;;;;5002209;28;20098;-61
2022/02/23 00:34:44;;;;;;;13.82;3.50;;;;;;;;;;5000319;28;20610;-60
2022/02/23 00:37:09;;;;;;;20.80;4.53;;;;;;;;;;5004307;28;20483;-59
2022/02/23 00:39:35;;;;;;;14.43;4.17;;;;;;;;;;4987930;28;20132;-60
2022/02/23 00:42:00;;;;;;;12.70;4.50;;;;;;;;;;4998551;28;20484;-60
2022/02/23 00:44:25;;;;;;;17.70;4.20;;;;;;;;;;5005528;28;20130;-59
2022/02/23 00:46:50;;;;;;;13.90;3.90;;;;;;;;;;4989835;28;20446;-59
2022/02/23 00:49:15;;;;;;;18.77;3.93;;;;;;;;;;4993635;28;20727;-58
2022/02/23 00:51:41;;;;;;;11.73;3.67;;;;;;;;;;4991737;28;20582;-61
2022/02/23 00:54:06;;;;;;;14.33;3.87;;;;;;;;;;4998840;28;20536;-58
2022/02/23 00:56:31;;;;;;;12.57;3.73;;;;;;;;;;4985076;28;20113;-61
2022/02/23 00:58:56;;;;;;;12.87;3.97;;;;;;;;;;4990253;28;20579;-60
2022/02/23 01:01:21;;;;;;;19.20;4.77;;;;;;;;;;4991170;28;20613;-59
2022/02/23 01:03:47;;;;;;;22.17;5.03;;;;;;;;;;4986211;28;20331;-59
2022/02/23 01:06:12;;;;;;;10.97;3.90;;;;;;;;;;4985405;28;20079;-60
2022/02/23 01:08:37;;;;;;;17.17;4.53;;;;;;;;;;4990505;28;20110;-58
2022/02/23 01:11:02;;;;;;;9.10;3.60;;;;;;;;;;4980392;28;20066;-59
2022/02/23 01:13:28;;;;;;;8.88;3.10;;;;;;;;;;4997788;28;20471;-60
2022/02/23 01:15:53;;;;;;;14.03;4.47;;;;;;;;;;4988559;28;20511;-60
2022/02/23 01:18:18;;;;;;;15.43;4.43;;;;;;;;;;4985870;28;20321;-59
2022/02/23 01:20:43;;;;;;;13.27;4.13;;;;;;;;;;4983142;28;20114;-59
2022/02/23 01:23:08;;;;;;;17.77;4.23;;;;;;;;;;4991677;28;20170;-57
2022/02/23 01:25:34;;;;;;;14.77;3.40;;;;;;;;;;4991044;28;20106;-61
2022/02/23 01:27:59;;;;;;;12.43;4.07;;;;;;;;;;4990706;28;20107;-59
2022/02/23 01:30:25;;;;;;;15.50;4.85;;;;;;;;;;4991104;28;20082;-58
2022/02/23 01:32:50;;;;;;;10.55;3.10;;;;;;;;;;4993028;28;20102;-60
2022/02/23 01:35:15;;;;;;;15.23;3.90;;;;;;;;;;5007699;28;20423;-62
2022/02/23 01:37:40;;;;;;;13.33;3.33;;;;;;;;;;4997708;28;20113;-59
2022/02/23 01:40:06;;;;;;;17.73;3.97;;;;;;;;;;5003961;28;20187;-59
2022/02/23 01:42:31;;;;;;;10.27;3.63;;;;;;;;;;4990150;28;20499;-60
2022/02/23 01:44:56;;;;;;;11.97;3.83;;;;;;;;;;4997469;28;20122;-59
2022/02/23 01:47:21;;;;;;;11.77;4.33;;;;;;;;;;4988201;28;20211;-58
2022/02/23 01:49:46;;;;;;;9.13;3.37;;;;;;;;;;5006183;28;20712;-59
2022/02/23 01:52:12;;;;;;;16.77;4.67;;;;;;;;;;5000390;28;20563;-60
2022/02/23 01:54:37;;;;;;;13.63;4.13;;;;;;;;;;4997305;28;20082;-61
2022/02/23 01:57:02;;;;;;;15.90;4.32;;;;;;;;;;4991259;28;20351;-60
2022/02/23 01:59:28;;;;;;;18.45;4.82;;;;;;;;;;4992144;28;20497;-61
2022/02/23 02:01:53;;;;;;;11.87;3.70;;;;;;;;;;5000218;28;20094;-61
2022/02/23 02:04:21;;;;;;;13.40;3.57;;;;;;;;;;4996700;28;20117;-58
2022/02/23 02:06:47;;;;;;;14.98;4.47;;;;;;;;;;5002701;28;20544;-59
2022/02/23 02:09:12;;;;;;;14.45;4.22;;;;;;;;;;4990090;28;20094;-60
2022/02/23 02:11:37;;;;;;;15.57;4.43;;;;;;;;;;4996663;28;20074;-59
2022/02/23 02:14:02;;;;;;;20.63;6.10;;;;;;;;;;4988859;28;20436;-59
2022/02/23 02:16:28;;;;;;;16.10;3.47;;;;;;;;;;4986325;28;20185;-61
2022/02/23 02:18:53;;;;;;;19.57;4.40;;;;;;;;;;4978463;28;20624;-60
2022/02/23 02:21:18;;;;;;;15.77;4.40;;;;;;;;;;4990760;28;20617;-60
2022/02/23 02:23:43;;;;;;;24.20;4.37;;;;;;;;;;4990073;28;20460;-58
2022/02/23 02:26:08;;;;;;;13.93;4.30;;;;;;;;;;4977505;28;20130;-59
2022/02/23 02:28:34;;;;;;;12.53;4.17;;;;;;;;;;4993636;28;20531;-58
2022/02/23 02:30:59;;;;;;;15.23;4.60;;;;;;;;;;5001520;28;20094;-61
2022/02/23 02:33:24;;;;;;;12.07;4.00;;;;;;;;;;5001514;28;20103;-59
2022/02/23 02:35:49;;;;;;;15.30;3.87;;;;;;;;;;5005122;28;20596;-58
2022/02/23 02:38:14;;;;;;;20.00;5.43;;;;;;;;;;4995925;28;20086;-59
2022/02/23 02:40:40;;;;;;;16.87;4.73;;;;;;;;;;5005753;28;20201;-59
2022/02/23 02:43:07;;;;;;;13.30;4.67;;;;;;;;;;4993342;28;20559;-58
2022/02/23 02:45:33;;;;;;;12.13;3.97;;;;;;;;;;4993277;28;20741;-59
2022/02/23 02:47:58;;;;;;;15.32;4.60;;;;;;;;;;4991924;28;20311;-61
2022/02/23 02:50:23;;;;;;;16.75;5.05;;;;;;;;;;5005153;28;20082;-58
2022/02/23 02:52:48;;;;;;;14.83;4.57;;;;;;;;;;4991367;28;20108;-59
2022/02/23 02:55:14;;;;;;;18.50;4.83;;;;;;;;;;5005110;28;20329;-59
2022/02/23 02:57:39;;;;;;;18.90;5.40;;;;;;;;;;4996113;28;20098;-60
2022/02/23 03:00:05;;;;;;;21.13;5.77;;;;;;;;;;5000876;28;20510;-58
2022/02/23 03:02:30;;;;;;;13.32;4.63;;;;;;;;;;4995349;28;20071;-59
2022/02/23 03:04:56;;;;;;;10.33;3.33;;;;;;;;;;5000804;28;20201;-59
2022/02/23 03:07:21;;;;;;;10.97;4.23;;;;;;;;;;4993838;28;20486;-59
2022/02/23 03:09:46;;;;;;;23.92;4.80;;;;;;;;;;4999913;28;20102;-57
2022/02/23 03:12:12;;;;;;;9.67;3.07;;;;;;;;;;4998295;28;20147;-58
2022/02/23 03:14:37;;;;;;;12.93;3.17;;;;;;;;;;4997431;28;20180;-60
2022/02/23 03:17:02;;;;;;;14.63;4.10;;;;;;;;;;4998271;28;20393;-59
2022/02/23 03:19:27;;;;;;;13.82;4.45;;;;;;;;;;4997400;28;20094;-59
2022/02/23 03:21:53;;;;;;;11.40;4.23;;;;;;;;;;5001417;28;20142;-59
2022/02/23 03:24:18;;;;;;;9.60;3.53;;;;;;;;;;4993498;28;20399;-60
2022/02/23 03:26:43;;;;;;;22.80;4.27;;;;;;;;;;5003702;28;20086;-58
2022/02/23 03:29:08;;;;;;;14.07;3.93;;;;;;;;;;4991093;28;20152;-58
2022/02/23 03:31:33;;;;;;;16.70;4.77;;;;;;;;;;5004343;28;20494;-58
2022/02/23 03:33:59;;;;;;;13.30;3.97;;;;;;;;;;4992327;28;20090;-57
2022/02/23 03:36:24;;;;;;;19.63;4.40;;;;;;;;;;5003296;28;20102;-59
2022/02/23 03:38:49;;;;;;;11.77;3.77;;;;;;;;;;5000738;28;20073;-59
2022/02/23 03:41:14;;;;;;;10.60;2.90;;;;;;;;;;5006666;28;20115;-59
2022/02/23 03:43:39;;;;;;;10.90;3.20;;;;;;;;;;4997275;28;20077;-58
2022/02/23 03:46:05;;;;;;;15.63;4.30;;;;;;;;;;5007348;28;20357;-61
2022/02/23 03:48:30;;;;;;;20.75;4.82;;;;;;;;;;4990946;28;20624;-59
2022/02/23 03:50:55;;;;;;;13.63;3.63;;;;;;;;;;4997174;28;20078;-60
2022/02/23 03:53:20;;;;;;;10.50;3.70;;;;;;;;;;4996731;28;20102;-60
2022/02/23 03:55:46;;;;;;;13.23;3.70;;;;;;;;;;5002038;28;20278;-59
2022/02/23 03:58:11;;;;;;;12.30;3.73;;;;;;;;;;4991876;28;20058;-59
2022/02/23 04:00:36;;;;;;;9.20;3.35;;;;;;;;;;5003174;28;20369;-58
2022/02/23 04:03:02;;;;;;;15.30;4.00;;;;;;;;;;5008957;28;20173;-59
2022/02/23 04:05:27;;;;;;;11.50;3.57;;;;;;;;;;4991254;28;20746;-61
2022/02/23 04:07:52;;;;;;;14.07;3.90;;;;;;;;;;5000404;28;20617;-60
2022/02/23 04:10:20;;;;;;;17.53;4.90;;;;;;;;;;4990335;28;20798;-59
2022/02/23 04:12:46;;;;;;;16.42;4.40;;;;;;;;;;4983994;28;20110;-58
2022/02/23 04:15:11;;;;;;;10.23;3.10;;;;;;;;;;4998379;28;20500;-60
2022/02/23 04:17:37;;;;;;;20.48;4.55;;;;;;;;;;5000549;28;20103;-61
2022/02/23 04:20:02;;;;;;;15.60;3.93;;;;;;;;;;4999954;28;20471;-60
2022/02/23 04:22:27;;;;;;;15.80;4.25;;;;;;;;;;4993507;28;20116;-57
2022/02/23 04:24:53;;;;;;;9.70;3.00;;;;;;;;;;5003887;28;20098;-60
2022/02/23 04:27:18;;;;;;;11.63;3.20;;;;;;;;;;5003899;28;20083;-60
2022/02/23 04:29:43;;;;;;;14.07;3.50;;;;;;;;;;4997601;28;20098;-58
2022/02/23 04:32:08;;;;;;;13.60;4.17;;;;;;;;;;5002841;28;20164;-57
2022/02/23 04:34:34;;;;;;;12.23;3.30;;;;;;;;;;4990133;28;20822;-59
2022/02/23 04:36:59;;;;;;;8.80;3.20;;;;;;;;;;5002457;28;20163;-60
2022/02/23 04:39:24;;;;;;;7.43;2.90;;;;;;;;;;5002968;28;20086;-60
2022/02/23 04:41:49;;;;;;;19.20;3.53;;;;;;;;;;5008372;28;20106;-58
2022/02/23 04:44:14;;;;;;;10.43;2.57;;;;;;;;;;4993692;28;20098;-58
2022/02/23 04:46:40;;;;;;;13.57;3.97;;;;;;;;;;5001249;28;20078;-60
2022/02/23 04:49:05;;;;;;;8.60;3.67;;;;;;;;;;5011892;28;20102;-60
2022/02/23 04:51:30;;;;;;;14.73;3.20;;;;;;;;;;4991750;28;20692;-60
2022/02/23 04:53:59;;;;;;;15.23;4.05;;;;;;;;;;4999930;28;20479;-58
2022/02/23 04:56:24;;;;;;;15.10;3.10;;;;;;;;;;5007811;28;20164;-58
2022/02/23 04:58:50;;;;;;;13.30;3.60;;;;;;;;;;4996143;28;20153;-58
2022/02/23 05:01:15;;;;;;;13.33;3.97;;;;;;;;;;5000238;28;20152;-59
2022/02/23 05:03:40;;;;;;;14.70;3.50;;;;;;;;;;4990507;28;20325;-58
2022/02/23 05:06:05;;;;;;;11.60;3.20;;;;;;;;;;5001572;28;20110;-58
2022/02/23 05:08:31;;;;;;;8.37;2.57;;;;;;;;;;4989279;28;20101;-58
2022/02/23 05:10:57;;;;;;;12.63;3.00;;;;;;;;;;5002419;28;20479;-61
2022/02/23 05:13:22;;;;;;;10.95;2.78;;;;;;;;;;4988942;28;20521;-58
2022/02/23 05:15:48;;;;;;;6.95;2.53;;;;;;;;;;4998360;28;20416;-59
2022/02/23 05:18:13;;;;;;;6.13;2.58;;;;;;;;;;4989406;28;20713;-58
2022/02/23 05:20:39;;;;;;;14.45;3.67;;;;;;;;;;5001836;28;20278;-60
2022/02/23 05:23:05;;;;;;;9.88;3.30;;;;;;;;;;4989349;28;20094;-57
2022/02/23 05:25:31;;;;;;;12.13;4.20;;;;;;;;;;5001817;28;20255;-58
2022/02/23 05:27:56;;;;;;;17.52;3.95;;;;;;;;;;5001958;28;20674;-58
2022/02/23 05:30:21;;;;;;;12.50;3.00;;;;;;;;;;5002461;28;20599;-57
2022/02/23 05:32:47;;;;;;;12.13;3.40;;;;;;;;;;4993656;28;20349;-59
2022/02/23 05:35:12;;;;;;;14.45;3.65;;;;;;;;;;5012663;28;20082;-58
2022/02/23 05:37:38;;;;;;;12.43;3.03;;;;;;;;;;4988772;28;20193;-57
2022/02/23 05:40:03;;;;;;;7.33;2.77;;;;;;;;;;5005524;28;20137;-61
2022/02/23 05:42:29;;;;;;;12.48;3.40;;;;;;;;;;4995483;28;20110;-58
2022/02/23 05:44:54;;;;;;;16.20;4.03;;;;;;;;;;5000780;28;20102;-60
2022/02/23 05:47:19;;;;;;;8.37;3.10;;;;;;;;;;4990421;28;20773;-59
2022/02/23 05:49:44;;;;;;;12.30;3.67;;;;;;;;;;5002553;28;20349;-58
2022/02/23 05:52:11;;;;;;;12.13;3.23;;;;;;;;;;5017881;28;20106;-57
2022/02/23 05:54:37;;;;;;;15.13;4.70;;;;;;;;;;5012050;28;20070;-61
2022/02/23 05:57:02;;;;;;;10.23;3.80;;;;;;;;;;5011473;28;20564;-58
2022/02/23 05:59:27;;;;;;;12.20;3.40;;;;;;;;;;5001851;28;20093;-58
2022/02/23 06:01:52;;;;;;;13.77;3.93;;;;;;;;;;5007812;28;20094;-58
2022/02/23 06:04:18;;;;;;;16.17;4.00;;;;;;;;;;4987889;28;20403;-57
2022/02/23 06:06:43;;;;;;;12.83;3.30;;;;;;;;;;4997080;28;20125;-61
2022/02/23 06:09:08;;;;;;;23.33;3.97;;;;;;;;;;4994188;28;20192;-58
2022/02/23 06:11:33;;;;;;;12.90;3.50;;;;;;;;;;4997090;28;20488;-58
2022/02/23 06:13:59;;;;;;;16.20;4.60;;;;;;;;;;5008580;28;20852;-60
2022/02/23 06:16:24;;;;;;;13.33;3.97;;;;;;;;;;5001238;28;20674;-58
2022/02/23 06:18:50;;;;;;;13.13;4.93;;;;;;;;;;4995427;28;20329;-60
2022/02/23 06:21:15;;;;;;;14.65;4.05;;;;;;;;;;5004717;28;20517;-58
2022/02/23 06:23:40;;;;;;;8.47;2.87;;;;;;;;;;5005107;28;20431;-59
2022/02/23 06:26:06;;;;;;;10.43;4.55;;;;;;;;;;5004897;28;20078;-59
2022/02/23 06:28:32;;;;;;;13.03;3.93;;;;;;;;;;5004730;28;20507;-59
2022/02/23 06:30:57;;;;;;;13.50;4.28;;;;;;;;;;5005040;28;20319;-59
2022/02/23 06:33:23;;;;;;;12.57;4.43;;;;;;;;;;5012117;28;20197;-58
2022/02/23 06:35:52;;;;;;;11.80;4.22;;;;;;;;;;5000226;28;20081;-59
2022/02/23 06:38:17;;;;;;;19.98;4.40;;;;;;;;;;4996868;28;20094;-58
2022/02/23 06:40:42;;;;;;;15.77;4.27;;;;;;;;;;5003067;28;20179;-58
2022/02/23 06:43:07;;;;;;;11.80;3.90;;;;;;;;;;5004457;28;20798;-58
2022/02/23 06:45:33;;;;;;;15.60;7.40;;;;;;;;;;5007302;28;20097;-60
2022/02/23 06:47:59;;;;;;;11.88;4.22;;;;;;;;;;5000403;28;20193;-58
2022/02/23 06:50:24;;;;;;;15.20;3.90;;;;;;;;;;5001109;28;20459;-60
2022/02/23 06:52:49;;;;;;;9.30;2.70;;;;;;;;;;5010188;28;20522;-58
2022/02/23 06:55:15;;;;;;;16.35;4.28;;;;;;;;;;5004631;28;20073;-60
2022/02/23 06:57:41;;;;;;;14.27;3.90;;;;;;;;;;5002950;28;20097;-58
2022/02/23 07:00:07;;;;;;;9.45;3.15;;;;;;;;;;5002992;28;20483;-58
2022/02/23 07:02:32;;;;;;;10.18;2.97;;;;;;;;;;5004878;28;20086;-59
2022/02/23 07:04:57;;;;;;;11.20;3.90;;;;;;;;;;5013309;28;20251;-57
2022/02/23 07:07:23;;;;;;;11.23;3.13;;;;;;;;;;4992922;28;20166;-59
2022/02/23 07:09:48;;;;;;;16.17;6.00;;;;;;;;;;5002785;28;20602;-58
2022/02/23 07:12:13;;;;;;;12.10;3.13;;;;;;;;;;5002143;28;20153;-60
2022/02/23 07:14:39;;;;;;;12.25;4.03;;;;;;;;;;5001519;28;20071;-60
2022/02/23 07:17:04;;;;;;;29.03;11.23;;;;;;;;;;5001367;28;20535;-58
2022/02/23 07:19:29;;;;;;;9.63;3.53;;;;;;;;;;5008030;28;20066;-58
2022/02/23 07:21:54;;;;;;;17.33;4.53;;;;;;;;;;5003351;28;20172;-61
2022/02/23 07:24:20;;;;;;;24.73;9.87;;;;;;;;;;4996240;28;20106;-59
2022/02/23 07:26:45;;;;;;;22.00;5.07;;;;;;;;;;5002260;28;20539;-59
2022/02/23 07:29:11;;;;;;;20.43;8.17;;;;;;;;;;5003538;28;20337;-57
2022/02/23 07:31:36;;;;;;;14.55;3.33;;;;;;;;;;4995047;28;20588;-61
2022/02/23 07:34:01;;;;;;;6.72;2.22;;;;;;;;;;5000868;28;20078;-57
2022/02/23 07:36:27;;;;;;;11.07;4.17;;;;;;;;;;5003718;28;20193;-60
2022/02/23 07:38:53;;;;;;;11.93;3.40;;;;;;;;;;4998964;28;20162;-58
2022/02/23 07:41:23;;;;;;;15.65;3.28;;;;;;;;;;5002530;28;20474;-59
2022/02/23 07:43:51;;;;;;;12.50;4.53;;;;;;;;;;5002517;28;20105;-58
2022/02/23 07:46:16;;;;;;;13.77;5.80;;;;;;;;;;5003394;28;20066;-58
2022/02/23 07:48:42;;;;;;;13.63;4.23;;;;;;;;;;5005724;28;20106;-60
2022/02/23 07:51:07;;;;;;;11.82;2.97;;;;;;;;;;5000840;28;20383;-59
2022/02/23 07:53:32;;;;;;;18.90;5.87;;;;;;;;;;5000980;28;20098;-57
2022/02/23 07:55:58;;;;;;;19.60;5.33;;;;;;;;;;5003867;28;20473;-60
2022/02/23 07:58:23;;;;;;;16.00;4.33;;;;;;;;;;5003168;28;20113;-60
2022/02/23 08:00:48;;;;;;;15.77;5.72;;;;;;;;;;4998432;28;20497;-60
2022/02/23 08:03:14;;;;;;;10.47;3.00;;;;;;;;;;4992575;28;20082;-60
2022/02/23 08:05:39;;;;;;;11.35;3.33;;;;;;;;;;5010002;28;20106;-59
2022/02/23 08:08:05;;;;;;;16.90;3.85;;;;;;;;;;5000125;28;20157;-59
2022/02/23 08:10:30;;;;;;;11.60;3.72;;;;;;;;;;5002241;28;20075;-61
2022/02/23 08:12:58;;;;;;;13.07;2.83;;;;;;;;;;5002542;28;20105;-59
2022/02/23 08:20:52;;;;;;;12.98;2.65;;;;;;;;;;5003216;28;20117;-61
2022/02/23 08:23:17;;;;;;;14.20;3.28;;;;;;;;;;5003988;28;20083;-61
2022/02/23 08:25:43;;;;;;;17.00;3.75;;;;;;;;;;5001726;28;20101;-58
2022/02/23 08:28:08;;;;;;;9.02;2.42;;;;;;;;;;5001979;28;20578;-59
2022/02/23 08:30:34;;;;;;;33.40;4.93;;;;;;;;;;5001896;28;20125;-62
2022/02/23 08:33:02;;;;;;;20.50;8.88;;;;;;;;;;5001881;28;20341;-60
2022/02/23 08:35:28;;;;;;;8.20;2.40;;;;;;;;;;5004627;28;20074;-59
2022/02/23 08:37:53;;;;;;;8.10;2.15;;;;;;;;;;5005341;28;20102;-59
2022/02/23 08:40:18;;;;;;;10.83;3.23;;;;;;;;;;5002606;28;20121;-61
2022/02/23 08:42:44;;;;;;;10.77;2.40;;;;;;;;;;5009532;28;20482;-60
2022/02/23 08:45:09;;;;;;;12.90;4.13;;;;;;;;;;5002732;28;20852;-60
2022/02/23 08:47:34;;;;;;;14.70;3.10;;;;;;;;;;4999747;28;20570;-60
2022/02/23 08:50:00;;;;;;;11.25;2.85;;;;;;;;;;4996706;28;20098;-60
2022/02/23 08:52:25;;;;;;;12.77;3.13;;;;;;;;;;4997373;28;20106;-61
2022/02/23 08:54:50;;;;;;;16.07;3.77;;;;;;;;;;4997670;28;20333;-58
2022/02/23 08:57:15;;;;;;;14.70;4.20;;;;;;;;;;5004697;28;20101;-58
2022/02/23 08:59:41;;;;;;;16.07;6.50;;;;;;;;;;5001881;28;20600;-61
2022/02/23 09:02:06;;;;;;;15.13;2.90;;;;;;;;;;4994492;28;20074;-60
2022/02/23 09:04:31;;;;;;;13.60;4.00;;;;;;;;;;5000637;28;20360;-59
2022/02/23 09:06:57;;;;;;;18.47;4.93;;;;;;;;;;5004546;28;20348;-59
2022/02/23 09:09:22;;;;;;;20.15;5.72;;;;;;;;;;5005068;28;20243;-61
2022/02/23 09:11:47;;;;;;;15.00;3.83;;;;;;;;;;4996771;28;20532;-60
2022/02/23 09:14:13;;;;;;;13.57;4.03;;;;;;;;;;5003263;28;20082;-62
2022/02/23 09:16:38;;;;;;;46.22;29.83;;;;;;;;;;4996946;28;20098;-59
2022/02/23 09:19:04;;;;;;;44.67;28.75;;;;;;;;;;4990186;28;20075;-60
2022/02/23 09:21:29;;;;;;;13.80;4.17;;;;;;;;;;4990309;28;20541;-61
2022/02/23 09:23:54;;;;;;;12.83;3.13;;;;;;;;;;5008267;28;20356;-60
2022/02/23 09:26:20;;;;;;;30.03;18.40;;;;;;;;;;4993698;28;20117;-59
2022/02/23 09:28:46;;;;;;;18.73;6.10;;;;;;;;;;4999369;28;20464;-62
2022/02/23 09:31:12;;;;;;;11.45;3.03;;;;;;;;;;5004490;28;20290;-59
2022/02/23 09:33:37;;;;;;;25.83;12.35;;;;;;;;;;4996796;28;20105;-59
2022/02/23 09:36:03;;;;;;;35.73;20.50;;;;;;;;;;5000259;28;20559;-60
2022/02/23 09:38:31;;;;;;;15.98;3.47;;;;;;;;;;4997217;28;20169;-61
2022/02/23 09:40:57;;;;;;;12.38;3.88;;;;;;;;;;4987886;28;20129;-60
2022/02/23 09:43:22;;;;;;;19.45;6.07;;;;;;;;;;4997203;28;20069;-60
2022/02/23 09:45:53;;;;;;;13.33;3.60;;;;;;;;;;5005006;28;20206;-59
2022/02/23 09:48:18;;;;;;;13.30;3.30;;;;;;;;;;4997131;28;20357;-59
2022/02/23 09:50:44;;;;;;;14.32;3.22;;;;;;;;;;4993929;28;20144;-59
2022/02/23 09:53:09;;;;;;;9.07;2.97;;;;;;;;;;5000775;28;20099;-60
2022/02/23 09:55:34;;;;;;;19.83;3.83;;;;;;;;;;4993033;28;20070;-59
2022/02/23 09:57:59;;;;;;;19.87;6.53;;;;;;;;;;4991432;28;20190;-59
2022/02/23 10:00:25;;;;;;;21.67;10.67;;;;;;;;;;4997664;28;20113;-59
2022/02/23 10:02:53;;;;;;;14.25;3.83;;;;;;;;;;5003327;28;20104;-61
2022/02/23 10:05:19;;;;;;;13.43;3.13;;;;;;;;;;5004772;28;20109;-59
2022/02/23 10:07:44;;;;;;;12.18;3.13;;;;;;;;;;4990243;28;20104;-62
2022/02/23 10:10:10;;;;;;;9.13;2.43;;;;;;;;;;5005414;28;20074;-60
2022/02/23 10:12:36;;;;;;;16.38;3.70;;;;;;;;;;5002702;28;20302;-61
2022/02/23 10:15:04;;;;;;;12.10;3.10;;;;;;;;;;5000701;28;20528;-61
2022/02/23 10:17:41;;;;;;;16.00;5.72;;;;;;;;;;5014942;28;20110;-59
2022/02/23 10:20:28;;;;;;;13.07;3.35;;;;;;;;;;5013001;28;20589;-58
2022/02/23 10:23:05;;;;;;;12.40;2.50;;;;;;;;;;4997563;28;20122;-58
2022/02/23 10:25:31;;;;;;;9.30;2.50;;;;;;;;;;5009616;28;20105;-59
2022/02/23 10:28:06;;;;;;;13.55;3.03;;;;;;;;;;5002284;28;20085;-59
2022/02/23 10:30:32;;;;;;;13.90;2.47;;;;;;;;;;5006269;28;20513;-60
2022/02/23 10:33:10;;;;;;;7.97;2.43;;;;;;;;;;4999800;28;20213;-60
2022/02/23 10:35:35;;;;;;;9.82;3.00;;;;;;;;;;5007969;28;20106;-59
2022/02/23 10:38:01;;;;;;;9.97;2.17;;;;;;;;;;5000596;28;20431;-59
2022/02/23 10:40:26;;;;;;;11.00;2.83;;;;;;;;;;5005278;28;20114;-59
2022/02/23 10:42:51;;;;;;;15.75;4.05;;;;;;;;;;5001379;28;20085;-58
2022/02/23 10:45:19;;;;;;;10.73;2.53;;;;;;;;;;5001196;28;20152;-61
2022/02/23 10:47:46;;;;;;;14.98;2.92;;;;;;;;;;5003542;28;20139;-61
2022/02/23 10:50:24;;;;;;;6.97;2.17;;;;;;;;;;5011962;28;20073;-59
2022/02/23 10:52:58;;;;;;;13.27;3.30;;;;;;;;;;5011159;28;20462;-62
2022/02/23 10:55:24;;;;;;;10.75;3.80;;;;;;;;;;5002049;28;20557;-60
2022/02/23 10:57:51;;;;;;;12.15;2.92;;;;;;;;;;5015592;28;20586;-58
2022/02/23 11:00:17;;;;;;;10.07;3.10;;;;;;;;;;4993442;28;20542;-60
2022/02/23 11:02:42;;;;;;;8.20;2.67;;;;;;;;;;4991807;28;20185;-59
2022/02/23 11:05:07;;;;;;;10.52;2.58;;;;;;;;;;4999639;28;20117;-58
2022/02/23 11:07:33;;;;;;;8.63;2.10;;;;;;;;;;5001613;28;20080;-62
2022/02/23 11:09:58;;;;;;;12.83;2.93;;;;;;;;;;5000482;28;20333;-60
2022/02/23 11:12:23;;;;;;;7.87;2.70;;;;;;;;;;4997745;28;20102;-59
2022/02/23 11:14:48;;;;;;;14.70;3.80;;;;;;;;;;5002461;28;20466;-60
2022/02/23 11:17:13;;;;;;;10.87;2.70;;;;;;;;;;5006203;28;20156;-69
2022/02/23 11:19:39;;;;;;;14.33;2.70;;;;;;;;;;5002296;28;20922;-71
2022/02/23 11:22:04;;;;;;;5.97;2.23;;;;;;;;;;4974188;28;20114;-71
2022/02/23 11:24:29;;;;;;;9.73;2.60;;;;;;;;;;5015058;28;20428;-70
2022/02/23 11:26:55;;;;;;;12.30;2.30;;;;;;;;;;4990399;28;20078;-69
2022/02/23 11:29:20;;;;;;;16.83;8.18;;;;;;;;;;4991017;28;20161;-71
2022/02/23 11:31:50;;;;;;;13.73;4.37;;;;;;;;;;5008686;28;20081;-68
2022/02/23 11:34:16;;;;;;;9.45;2.40;;;;;;;;;;5019476;28;20074;-72
2022/02/23 11:36:44;;;;;;;10.70;2.78;;;;;;;;;;5007910;28;20148;-72
2022/02/23 11:39:10;;;;;;;;;;;;;;;;;;4991297;28;20128;-71
2022/02/23 11:41:36;;;;;;;9.47;2.60;;;;;;;;;;5010308;28;19990;-72
2022/02/23 11:44:07;;;;;;;13.85;3.10;;;;;;;;;;4988584;28;20112;-71
2022/02/23 11:46:32;;;;;;;11.50;2.40;;;;;;;;;;4985109;28;20125;-68
2022/02/23 11:48:57;;;;;;;7.87;2.27;;;;;;;;;;4988848;28;20741;-68
2022/02/23 11:51:23;;;;;;;8.47;2.57;;;;;;;;;;4984575;28;20580;-71
2022/02/23 11:53:49;;;;;;;10.73;2.80;;;;;;;;;;5015312;28;20346;-69
2022/02/23 11:56:14;;;;;;;10.95;2.38;;;;;;;;;;4983927;28;20102;-67
2022/02/23 11:58:44;;;;;;;10.27;2.30;;;;;;;;;;4986764;28;20101;-69
2022/02/23 12:01:09;;;;;;;9.38;2.67;;;;;;;;;;4982425;28;20190;-68
2022/02/23 12:03:34;;;;;;;10.83;2.27;;;;;;;;;;4983325;28;20166;-68
2022/02/23 12:06:05;;;;;;;8.47;2.47;;;;;;;;;;4984216;28;20075;-69
2022/02/23 12:08:33;;;;;;;8.60;2.63;;;;;;;;;;4996425;28;20114;-68
2022/02/23 12:10:59;;;;;;;9.73;3.30;;;;;;;;;;4977270;28;20389;-69
2022/02/23 12:13:37;;;;;;;10.82;3.05;;;;;;;;;;4978106;28;20153;-68
2022/02/23 12:16:17;;;;;;;5.30;1.90;;;;;;;;;;4990468;28;20129;-67
2022/02/23 12:18:46;;;;;;;6.28;1.90;;;;;;;;;;4999622;28;20156;-71
2022/02/23 12:21:11;;;;;;;7.75;2.30;;;;;;;;;;4987614;28;20123;-67
2022/02/23 12:23:37;;;;;;;6.95;2.10;;;;;;;;;;4995258;28;20648;-68
2022/02/23 12:26:05;;;;;;;8.35;1.85;;;;;;;;;;4990034;28;20163;-70
2022/02/23 12:28:31;;;;;;;5.95;2.30;;;;;;;;;;5007939;28;20482;-67
2022/02/23 12:30:57;;;;;;;12.32;5.70;;;;;;;;;;4990058;28;20085;-68
2022/02/23 12:33:22;;;;;;;10.05;2.83;;;;;;;;;;5009255;28;20097;-70
2022/02/23 12:35:47;;;;;;;8.93;2.30;;;;;;;;;;4992357;28;20149;-70
2022/02/23 12:38:14;;;;;;;8.80;2.80;;;;;;;;;;5003773;28;20066;-68
2022/02/23 12:40:39;;;;;;;11.48;2.13;;;;;;;;;;5003177;28;20826;-67
2022/02/23 12:43:05;;;;;;;9.80;2.27;;;;;;;;;;5008332;28;20098;-69
2022/02/23 12:45:30;;;;;;;9.18;2.30;;;;;;;;;;5003235;28;20419;-69
2022/02/23 12:47:56;;;;;;;7.32;2.17;;;;;;;;;;4993011;28;20073;-70
2022/02/23 12:50:26;;;;;;;9.88;2.50;;;;;;;;;;4999178;28;20061;-70
2022/02/23 12:52:51;;;;;;;6.20;2.03;;;;;;;;;;4992296;28;20159;-71
2022/02/23 12:55:18;;;;;;;18.17;7.27;;;;;;;;;;4996546;28;20573;-69
2022/02/23 12:57:44;;;;;;;8.93;2.72;;;;;;;;;;4993389;28;20082;-69
2022/02/23 13:00:10;;;;;;;7.15;1.92;;;;;;;;;;4989775;28;20216;-66
2022/02/23 13:02:35;;;;;;;8.60;2.20;;;;;;;;;;5006281;28;20057;-66
2022/02/23 13:05:01;;;;;;;7.97;2.17;;;;;;;;;;4989144;28;20525;-69
2022/02/23 13:07:27;;;;;;;9.50;3.08;;;;;;;;;;5011489;28;20123;-67
2022/02/23 13:09:55;;;;;;;6.47;2.00;;;;;;;;;;4997444;28;20096;-67
2022/02/23 13:12:21;;;;;;;7.07;2.33;;;;;;;;;;4994316;28;20193;-66
2022/02/23 13:14:46;;;;;;;6.38;2.00;;;;;;;;;;4987807;28;20573;-68
2022/02/23 13:17:12;;;;;;;9.30;2.35;;;;;;;;;;4985362;28;20408;-69
2022/02/23 13:19:38;;;;;;;10.13;3.80;;;;;;;;;;4995620;28;20726;-66
2022/02/23 13:22:05;;;;;;;7.85;2.40;;;;;;;;;;5002150;28;20097;-65
2022/02/23 13:24:34;;;;;;;6.22;2.33;;;;;;;;;;4990020;28;20082;-66
2022/02/23 13:27:02;;;;;;;5.45;2.10;;;;;;;;;;5001935;28;20114;-67
2022/02/23 13:29:28;;;;;;;8.90;2.25;;;;;;;;;;4984621;28;20069;-68
2022/02/23 13:31:54;;;;;;;10.45;2.30;;;;;;;;;;4990551;28;20718;-70
2022/02/23 13:34:38;;;;;;;8.13;2.20;;;;;;;;;;4994719;28;20025;-68
2022/02/23 13:37:12;;;;;;;7.05;2.15;;;;;;;;;;4995418;28;20376;-68
2022/02/23 13:39:41;;;;;;;9.70;3.15;;;;;;;;;;5000044;28;20069;-68
2022/02/23 13:42:07;;;;;;;9.35;2.30;;;;;;;;;;4987411;28;20068;-68
2022/02/23 13:44:36;;;;;;;8.77;2.40;;;;;;;;;;4993768;28;20037;-68
2022/02/23 13:47:05;;;;;;;5.55;2.03;;;;;;;;;;4995607;28;20206;-71
2022/02/23 13:49:30;;;;;;;6.25;3.33;;;;;;;;;;4991098;28;20096;-68
2022/02/23 13:51:56;;;;;;;9.13;2.63;;;;;;;;;;4988375;28;20041;-67
2022/02/23 13:54:22;;;;;;;5.72;2.15;;;;;;;;;;4993536;28;20046;-68
2022/02/23 13:56:47;;;;;;;9.20;2.30;;;;;;;;;;4995235;28;20068;-69
2022/02/23 13:59:16;;;;;;;5.60;2.03;;;;;;;;;;4990839;28;20026;-70
2022/02/23 14:01:57;;;;;;;7.57;2.22;;;;;;;;;;4994055;28;20050;-67
2022/02/23 14:04:23;;;;;;;4.90;1.90;;;;;;;;;;4993146;28;20561;-69
2022/02/23 14:06:50;;;;;;;6.97;2.10;;;;;;;;;;4985718;28;20037;-70
2022/02/23 14:09:15;;;;;;;8.48;2.55;;;;;;;;;;4994642;28;20070;-69
2022/02/23 14:11:45;;;;;;;7.53;2.20;;;;;;;;;;4988604;28;20038;-70
2022/02/23 14:14:15;;;;;;;8.25;2.38;;;;;;;;;;4991393;28;20107;-68
2022/02/23 14:16:41;;;;;;;8.25;2.38;;;;;;;;;;4984710;28;20030;-68
2022/02/23 14:19:18;;;;;;;5.93;2.03;;;;;;;;;;4995657;28;20638;-69
2022/02/23 14:21:47;;;;;;;7.53;3.33;;;;;;;;;;4990652;28;20084;-69
2022/02/23 14:24:15;;;;;;;7.57;2.00;;;;;;;;;;4988389;28;20038;-69
2022/02/23 14:26:47;;;;;;;6.22;2.63;;;;;;;;;;4992977;28;20053;-70
2022/02/23 14:29:13;;;;;;;6.13;2.00;;;;;;;;;;4997221;28;20034;-69
2022/02/23 14:31:44;;;;;;;6.83;2.23;;;;;;;;;;4996011;28;20372;-70